Latest Weather Observations for Mangalore

IDV60801

Issued at 7:31 pm EST Wednesday 27 May 2015 (issued every 30 minutes, with the page automatically refreshed every 10 minutes)

About weather observations | Map of weather stations | Latest weather observations for VIC | Other Formats
Station Details ID: 088109 Name: MANGALORE AIRPORT Lat: -36.89 Lon: 145.19 Height: 140.8 m
Data from the previous 72 hours. | See also: Recent months at Mangalore
Date/Time
EST
Temp
°C
App
Temp
°C
Dew
Point
Rel
Hum
%
Delta-T
°C
Wind Press
QNH
hPa
Press
MSL
hPa
Rain
since 9 am
mm
Dir
 
Spd
km/h
Gust
km/h
Spd
kts
Gust
kts
27/07:30pm 12.2 8.4 9.2 82 1.5 NE 19 24 10 13 1020.7 1020.8 0.0
27/07:00pm 12.0 8.6 9.0 82 1.5 NE 17 20 9 11 1020.5 1020.6 0.0
27/06:30pm 11.9 8.8 8.7 81 1.6 NE 15 20 8 11 1020.4 1020.5 0.0
27/06:00pm 12.7 9.7 9.2 79 1.8 NE 15 19 8 10 1020.3 1020.4 0.0
27/05:30pm 12.7 9.6 8.8 77 2.0 NE 15 19 8 10 1020.1 1020.2 0.0
27/05:00pm 13.8 11.1 8.8 72 2.5 NNE 13 17 7 9 1019.9 1020.0 0.0
27/04:30pm 15.3 11.5 9.2 67 3.2 NE 19 26 10 14 1019.8 1019.9 0.0
27/04:00pm 15.4 11.4 9.1 66 3.2 NE 20 28 11 15 1020.1 1020.2 0.0
27/03:30pm 16.1 12.1 9.1 63 3.6 NE 20 26 11 14 1020.0 1020.1 0.0
27/03:00pm 15.6 11.5 8.6 63 3.6 NNE 20 26 11 14 1020.1 1020.2 0.0
27/02:30pm 15.8 11.6 8.3 61 3.8 NNE 20 26 11 14 1020.1 1020.2 0.0
27/02:00pm 15.7 11.7 8.4 62 3.7 NNE 19 24 10 13 1020.4 1020.5 0.0
27/01:30pm 16.1 12.0 8.8 62 3.8 NE 20 26 11 14 1020.6 1020.7 0.0
27/01:00pm 15.2 11.3 8.7 65 3.3 NNE 19 24 10 13 1020.9 1021.0 0.0
27/12:30pm 14.8 10.9 8.7 67 3.1 NE 19 24 10 13 1021.3 1021.4 0.0
27/12:00pm 14.8 10.2 8.1 64 3.4 NNE 22 30 12 16 1021.7 1021.8 0.0
27/11:30am 14.9 10.1 7.5 61 3.7 NNE 22 30 12 16 1022.2 1022.3 0.0
27/11:00am 14.8 9.6 7.4 61 3.7 NNE 24 32 13 17 1022.7 1022.8 0.0
27/10:30am 15.3 9.8 7.6 60 3.9 NNE 26 32 14 17 1022.8 1022.9 0.0
27/10:00am 13.6 7.9 6.7 63 3.3 NE 26 35 14 19 1022.7 1022.8 0.0
27/09:30am 12.7 7.8 6.7 67 2.9 NNE 22 30 12 16 1023.0 1023.1 0.0
27/09:00am 12.8 8.5 7.0 68 2.8 NNE 19 24 10 13 1023.0 1023.1 0.0
27/08:30am 11.9 8.3 6.8 71 2.5 NNE 15 20 8 11 1022.8 1022.9 0.0
27/08:00am 11.6 7.0 6.5 71 2.4 NE 20 24 11 13 1022.7 1022.8 0.0
27/07:30am 11.4 6.4 6.3 71 2.4 NE 22 28 12 15 1022.4 1022.5 0.0
27/07:00am 11.3 6.7 6.6 73 2.2 NE 20 26 11 14 1022.5 1022.6 0.0
27/06:30am 11.0 6.6 6.7 75 2.0 NE 19 24 10 13 1022.5 1022.6 0.0
27/06:00am 11.0 6.7 6.9 76 2.0 NE 19 24 10 13 1022.4 1022.5 0.0
27/05:30am 10.8 6.8 6.7 76 1.9 NE 17 20 9 11 1022.6 1022.7 0.0
27/05:00am 10.7 6.4 6.8 77 1.8 NE 19 24 10 13 1022.5 1022.6 0.0
27/04:30am 10.4 6.8 6.9 79 1.7 NE 15 19 8 10 1022.7 1022.8 0.0
27/04:00am 10.2 7.1 7.3 82 1.4 NE 13 17 7 9 1022.7 1022.8 0.0
27/03:30am 7.9 6.4 6.8 93 0.5 NNE 4 9 2 5 1023.0 1023.1 0.0
27/03:00am 7.5 5.0 6.6 94 0.4 NNE 9 9 5 5 1023.3 1023.4 0.0
27/02:30am 6.8 4.1 5.7 93 0.5 NNE 9 9 5 5 1023.6 1023.7 0.0
27/02:00am 7.1 6.2 6.0 93 0.5 CALM 0 0 0 0 1023.8 1023.9 0.0
27/01:30am 7.6 6.8 6.4 92 0.6 CALM 0 0 0 0 1023.9 1024.0 0.0
27/01:00am 7.6 6.8 6.5 93 0.5 CALM 0 0 0 0 1024.2 1024.3 0.0
27/12:30am 7.7 7.0 6.8 94 0.4 CALM 0 0 0 0 1024.4 1024.5 0.0
27/12:00am 7.5 6.8 6.8 95 0.3 CALM 0 4 0 2 1024.6 1024.7 0.0
 
Date/Time
EST
Temp
°C
App
Temp
°C
Dew
Point
Rel
Hum
%
Delta-T
°C
Wind Press
QNH
hPa
Press
MSL
hPa
Rain
since 9 am
mm
Dir
 
Spd
km/h
Gust
km/h
Spd
kts
Gust
kts
26/11:30pm 7.0 4.1 6.3 95 0.3 NNE 11 13 6 7 1025.0 1025.1 0.0
26/11:00pm 7.1 6.3 6.4 95 0.3 CALM 0 0 0 0 1024.9 1025.0 0.0
26/10:30pm 6.6 5.6 5.7 94 0.4 CALM 0 0 0 0 1025.2 1025.3 0.0
26/10:00pm 6.1 5.0 5.1 93 0.4 CALM 0 0 0 0 1025.3 1025.5 0.0
26/09:30pm 6.1 5.1 5.4 95 0.3 CALM 0 0 0 0 1025.3 1025.5 0.0
26/09:00pm 5.6 2.7 4.7 94 0.4 NNE 9 11 5 6 1025.2 1025.3 0.0
26/08:30pm 5.7 3.3 4.2 90 0.6 NNE 6 7 3 4 1025.4 1025.6 0.0
26/08:00pm 7.4 5.2 6.0 91 0.6 NNE 7 9 4 5 1025.5 1025.7 0.0
26/07:30pm 8.3 6.2 5.9 85 1.1 NNE 6 7 3 4 1025.8 1026.0 0.0
26/07:00pm 10.2 8.2 7.1 81 1.5 NNE 7 9 4 5 1025.9 1026.1 0.0
26/06:30pm 10.8 8.8 7.1 78 1.8 NNE 7 9 4 5 1025.9 1026.1 0.0
26/06:00pm 10.7 8.8 7.4 80 1.6 NNE 7 9 4 5 1025.9 1026.1 0.0
26/05:30pm 10.6 8.1 6.6 76 1.9 NNE 9 9 5 5 1025.7 1025.9 0.0
26/05:00pm 12.5 11.7 6.3 66 2.9 CALM 0 0 0 0 1025.6 1025.8 0.0
26/04:30pm 13.1 11.0 6.7 65 3.1 NNE 7 11 4 6 1025.5 1025.7 0.0
26/04:00pm 13.4 11.5 6.5 63 3.3 NNE 6 9 3 5 1025.9 1026.1 0.0
26/03:30pm 13.7 12.0 6.1 60 3.6 NNE 4 6 2 3 1026.2 1026.3 0.0
26/03:00pm 13.9 11.2 5.8 58 3.8 NNE 9 11 5 6 1026.2 1026.3 0.0
26/02:30pm 13.9 10.4 5.3 56 4.1 NE 13 15 7 8 1026.0 1026.2 0.0
26/02:00pm 14.7 11.3 5.8 55 4.2 N 13 15 7 8 1026.5 1026.6 0.0
26/01:30pm 14.9 11.8 5.4 53 4.5 N 11 15 6 8 1027.0 1027.1 0.0
26/01:00pm 15.0 12.3 5.5 53 4.5 NNE 9 15 5 8 1027.2 1027.3 0.0
26/12:30pm 15.1 12.9 6.1 55 4.4 N 7 13 4 7 1027.7 1027.8 0.0
26/12:00pm 13.4 11.2 6.0 61 3.5 N 7 13 4 7 1028.4 1028.5 0.0
26/11:30am 12.0 10.1 6.7 70 2.5 WSW 6 7 3 4 1029.0 1029.1 0.0
26/11:00am 9.5 7.1 6.9 84 1.2 WSW 9 9 5 5 1029.7 1029.8 0.0
26/10:30am 8.0 6.1 6.6 91 0.6 WSW 6 7 3 4 1029.7 1029.8 0.0
26/10:00am 6.8 4.7 6.5 98 0.1 WSW 7 9 4 5 1030.2 1030.3 0.0
26/09:30am 5.8 3.1 5.7 99 0.0 WSW 9 11 5 6 1030.4 1030.5 0.0
26/09:00am 4.8 1.9 4.7 99 0.0 SW 9 11 5 6 1030.1 1030.2 0.2
26/08:30am 3.5 0.9 3.4 99 0.0 SW 6 9 3 5 1029.9 1030.0 0.2
26/08:00am 1.7 -1.2 1.6 99 0.0 SW 6 9 3 5 1030.1 1030.2 0.0
26/07:30am 1.3 -1.8 1.2 99 0.0 SW 7 9 4 5 1030.2 1030.3 0.0
26/07:00am 0.8 -2.8 0.7 99 0.0 SW 9 11 5 6 1029.8 1029.9 0.0
26/06:58am 0.9 -2.7 0.8 99 0.0 SW 9 11 5 6 1029.8 1029.9 0.0
26/06:30am 1.0 -2.6 0.9 99 0.0 SW 9 11 5 6 1029.5 1029.6 0.0
26/06:20am 1.1 -2.1 1.0 99 0.0 SW 7 9 4 5 1029.3 1029.4 0.0
26/06:05am 1.1 -2.4 1.0 99 0.0 SW 9 11 5 6 1029.2 1029.3 0.0
26/06:00am 1.0 -2.6 0.9 99 0.0 SW 9 11 5 6 1029.2 1029.3 0.0
26/05:30am 1.1 -2.4 1.0 99 0.0 SW 9 11 5 6 1029.1 1029.2 0.0
26/05:21am 0.9 -2.7 0.8 99 0.0 E 9 11 5 6 1029.1 1029.2 0.0
26/05:00am 1.1 -1.9 1.0 99 0.0 E 6 9 3 5 1029.0 1029.1 0.0
26/04:31am 0.8 -2.4 0.7 99 0.0 E 7 9 4 5 1029.3 1029.4 0.0
26/04:30am 0.7 -2.5 0.6 99 0.0 E 7 9 4 5 1029.3 1029.4 0.0
26/04:00am 1.1 -1.9 1.0 99 0.0 E 6 7 3 4 1029.3 1029.4 0.0
26/03:30am 1.2 -1.9 1.1 99 0.0 E 7 11 4 6 1029.5 1029.6 0.0
26/03:00am 1.3 -1.8 1.2 99 0.0 E 7 7 4 4 1029.7 1029.8 0.0
26/02:30am 1.6 -1.3 1.5 99 0.0 E 6 7 3 4 1029.9 1030.0 0.0
26/02:04am 1.5 -1.6 1.4 99 0.0 E 7 9 4 5 1030.0 1030.1 0.0
26/02:00am 1.4 -1.5 1.3 99 0.0 E 6 9 3 5 1030.0 1030.1 0.0
26/01:48am 1.6 -1.3 1.5 99 0.0 E 6 7 3 4 1029.9 1030.0 0.0
26/01:30am 1.5 -1.6 1.4 99 0.0 E 7 9 4 5 1029.9 1030.0 0.0
26/01:12am 1.9 -0.9 1.8 99 0.0 E 6 7 3 4 1029.9 1030.0 0.0
26/01:00am 1.6 -1.5 1.5 99 0.0 E 7 9 4 5 1029.9 1030.0 0.0
26/12:33am 1.3 -1.7 1.0 98 0.1 E 6 7 3 4 1030.2 1030.3 0.0
26/12:30am 1.3 -1.7 1.0 98 0.1 E 6 7 3 4 1030.2 1030.3 0.0
26/12:01am 0.7 -2.4 0.1 96 0.2 E 6 7 3 4 1030.3 1030.4 0.0
26/12:00am 0.6 -2.5 0.0 96 0.2 E 6 7 3 4 1030.3 1030.4 0.0
 
Date/Time
EST
Temp
°C
App
Temp
°C
Dew
Point
Rel
Hum
%
Delta-T
°C
Wind Press
QNH
hPa
Press
MSL
hPa
Rain
since 9 am
mm
Dir
 
Spd
km/h
Gust
km/h
Spd
kts
Gust
kts
25/11:30pm 1.9 -1.0 1.5 97 0.2 E 6 7 3 4 1030.4 1030.5 0.0
25/11:29pm 2.0 -0.9 1.6 97 0.2 E 6 7 3 4 1030.4 1030.5 0.0
25/11:10pm 2.1 -0.8 1.7 97 0.2 E 6 7 3 4 1030.4 1030.5 0.0
25/11:01pm 1.2 -1.8 0.5 95 0.3 E 6 7 3 4 1030.4 1030.5 0.0
25/11:00pm 1.3 -1.7 0.6 95 0.3 E 6 7 3 4 1030.4 1030.5 0.0
25/10:51pm 1.2 -1.8 0.5 95 0.3 E 6 7 3 4 1030.4 1030.5 0.0
25/10:30pm 1.9 -1.0 1.2 95 0.3 E 6 7 3 4 1030.4 1030.5 0.0
25/10:00pm 1.9 0.1 0.9 93 0.4 CALM 0 0 0 0 1030.7 1030.8 0.0
25/09:30pm 3.2 1.6 2.3 94 0.4 CALM 0 0 0 0 1030.6 1030.7 0.0
25/09:00pm 2.9 0.4 1.6 91 0.5 E 4 7 2 4 1030.7 1030.8 0.0
25/08:30pm 3.3 1.6 1.7 89 0.6 CALM 0 0 0 0 1030.7 1030.8 0.0
25/08:00pm 4.4 1.5 2.6 88 0.7 E 7 7 4 4 1030.5 1030.6 0.0
25/07:30pm 4.2 2.1 1.9 85 0.9 E 2 6 1 3 1030.6 1030.7 0.0
25/07:00pm 4.7 1.7 2.1 83 1.0 E 7 7 4 4 1030.4 1030.5 0.0
25/06:30pm 7.0 5.2 3.3 77 1.6 E 2 7 1 4 1030.1 1030.2 0.0
25/06:00pm 8.1 6.4 4.1 76 1.7 E 2 6 1 3 1029.8 1029.9 0.0
25/05:30pm 10.0 7.5 4.0 66 2.7 E 6 7 3 4 1029.6 1029.7 0.0
25/05:00pm 12.5 10.0 4.5 58 3.6 E 7 7 4 4 1029.2 1029.3 0.0
25/04:30pm 14.0 11.6 4.3 52 4.5 E 6 7 3 4 1029.3 1029.4 0.0
25/04:00pm 14.8 12.4 4.5 50 4.8 E 6 7 3 4 1029.2 1029.3 0.0
25/03:30pm 14.8 13.6 4.5 50 4.8 CALM 0 0 0 0 1029.4 1029.5 0.0
25/03:00pm 14.7 12.4 4.7 51 4.7 E 6 9 3 5 1029.5 1029.6 0.0
25/02:30pm 15.1 13.3 5.3 52 4.7 NE 4 9 2 5 1029.7 1029.8 0.0
25/02:00pm 14.5 12.2 4.8 52 4.5 N 6 9 3 5 1030.0 1030.1 0.0
25/01:30pm 13.7 11.1 6.1 60 3.6 NE 9 15 5 8 1030.2 1030.3 0.0
25/01:00pm 13.0 10.9 5.7 61 3.4 WSW 6 9 3 5 1030.6 1030.7 0.0
25/12:30pm 11.8 10.1 5.9 67 2.8 WSW 4 7 2 4 1031.2 1031.3 0.0
25/12:00pm 11.3 9.2 6.0 70 2.5 SW 6 11 3 6 1031.7 1031.9 0.0
25/11:30am 10.7 9.0 6.1 73 2.2 SW 4 7 2 4 1032.1 1032.3 0.0
25/11:00am 9.9 9.0 6.1 77 1.8 CALM 0 0 0 0 1032.4 1032.6 0.0
25/10:30am 9.1 7.1 6.4 83 1.3 SW 6 7 3 4 1032.8 1033.0 0.0
25/10:00am 7.8 5.6 6.3 90 0.7 SW 7 9 4 5 1032.7 1032.9 0.0
25/09:30am 6.9 4.7 6.2 95 0.3 SW 7 11 4 6 1032.6 1032.8 0.0
25/09:00am 6.0 3.7 5.6 97 0.2 SW 7 7 4 4 1032.5 1032.7 0.0
25/08:30am 5.1 2.8 4.7 97 0.2 SW 6 7 3 4 1032.4 1032.6 0.0
25/08:00am 4.6 2.0 4.3 98 0.1 SW 7 9 4 5 1032.2 1032.4 0.0
25/07:30am 4.4 1.4 4.3 99 0.0 WSW 9 13 5 7 1032.1 1032.3 0.0
25/07:00am 3.5 1.7 3.2 98 0.1 WSW 2 9 1 5 1031.9 1032.1 0.0
25/06:30am 3.1 1.5 2.7 97 0.2 CALM 0 0 0 0 1031.6 1031.8 0.0
25/06:00am 3.4 0.6 3.0 97 0.2 WSW 7 11 4 6 1031.4 1031.6 0.0
25/05:30am 4.0 0.5 3.7 98 0.1 W 11 11 6 6 1031.8 1032.0 0.0
25/05:00am 3.9 0.8 3.8 99 0.0 W 9 11 5 6 1031.2 1031.3 0.0
25/04:30am 3.6 1.0 3.3 98 0.1 ENE 6 6 3 3 1030.5 1030.6 0.0
25/04:00am 3.4 0.2 3.1 98 0.1 ENE 9 11 5 6 1030.7 1030.8 0.0
25/03:30am 3.4 0.8 3.1 98 0.1 ENE 6 6 3 3 1030.6 1030.7 0.0
25/03:00am 3.4 0.2 3.1 98 0.1 ENE 9 11 5 6 1031.1 1031.2 0.0
25/02:30am 3.5 0.7 3.4 99 0.0 ENE 7 9 4 5 1030.9 1031.0 0.0
25/02:00am 3.0 0.1 2.7 98 0.1 ENE 7 9 4 5 1031.5 1031.7 0.0
25/01:30am 3.1 -0.1 2.8 98 0.1 ENE 9 9 5 5 1031.5 1031.7 0.0
25/01:00am 2.2 0.1 1.9 98 0.1 ENE 2 6 1 3 1031.4 1031.6 0.0
25/12:30am 2.2 0.1 1.8 97 0.2 ENE 2 7 1 4 1031.6 1031.8 0.0
25/12:00am 1.7 -1.2 1.3 97 0.2 ENE 6 7 3 4 1031.8 1032.0 0.0
 
Date/Time
EST
Temp
°C
App
Temp
°C
Dew
Point
Rel
Hum
%
Delta-T
°C
Wind Press
QNH
hPa
Press
MSL
hPa
Rain
since 9 am
mm
Dir
 
Spd
km/h
Gust
km/h
Spd
kts
Gust
kts
24/11:30pm 2.1 -0.8 1.5 96 0.2 ENE 6 7 3 4 1032.1 1032.3 0.0
24/11:18pm 2.2 -0.7 1.6 96 0.2 ENE 6 7 3 4 1032.1 1032.3 0.0
24/11:00pm 2.8 -0.2 2.2 96 0.2 ENE 7 9 4 5 1032.0 1032.2 0.0
24/10:54pm 3.2 0.3 2.6 96 0.2 ENE 7 9 4 5 1032.0 1032.2 0.0
24/10:30pm 2.7 1.0 1.7 93 0.4 CALM 0 0 0 0 1032.0 1032.2 0.0
24/10:00pm 3.2 1.6 2.2 93 0.4 CALM 0 0 0 0 1031.9 1032.1 0.0
24/09:30pm 3.9 2.4 2.9 93 0.4 CALM 0 0 0 0 1032.0 1032.2 0.0
24/09:00pm 3.2 0.4 1.9 91 0.5 ENE 6 7 3 4 1031.8 1032.0 0.0
24/08:30pm 3.7 2.1 2.2 90 0.6 CALM 0 0 0 0 1031.6 1031.8 0.0
24/08:00pm 4.6 1.5 3.4 92 0.5 N 9 11 5 6 1031.6 1031.8 0.0

Other Formats:

Comma delimited format used in spreadsheet applications
http://www.bom.gov.au/fwo/IDV60801/IDV60801.94874.axf

JavaScript Object Notation format (JSON) in row-major order
http://www.bom.gov.au/fwo/IDV60801/IDV60801.94874.json